Time,TemperatureF,DewpointF,PressureIn,WindDirection,WindDirectionDegrees,WindSpeedMPH,WindSpeedGustMPH,Humidity,HourlyPrecipIn,Conditions,Clouds,dailyrainin,SoftwareType,DateUTC
2013-01-16 00:04:00,22.3,-1.2,30.55,ENE,75,0.0,0.0,35,0.00,,---,0.00,VWS V14.00,2013-01-16 07:04:00,
2013-01-16 00:09:00,22.1,-1.4,30.54,ENE,75,0.0,0.0,35,0.00,,---,0.00,VWS V14.00,2013-01-16 07:09:00,
2013-01-16 00:14:00,21.8,-1.0,30.55,ENE,75,0.0,0.0,36,0.00,,---,0.00,VWS V14.00,2013-01-16 07:14:00,
2013-01-16 00:19:00,21.5,-1.3,30.55,ENE,75,0.0,0.0,36,0.00,,---,0.00,VWS V14.00,2013-01-16 07:19:00,
2013-01-16 00:24:00,21.3,-1.5,30.55,ENE,75,0.0,0.0,36,0.00,,---,0.00,VWS V14.00,2013-01-16 07:24:00,
2013-01-16 00:29:00,21.2,-1.6,30.56,ENE,75,0.0,0.0,36,0.00,,---,0.00,VWS V14.00,2013-01-16 07:29:00,
2013-01-16 00:34:00,20.5,-1.6,30.55,ENE,75,0.0,0.0,37,0.00,,---,0.00,VWS V14.00,2013-01-16 07:34:00,
2013-01-16 00:39:00,19.5,-2.0,30.56,ENE,75,0.0,0.0,38,0.00,,---,0.00,VWS V14.00,2013-01-16 07:39:00,
2013-01-16 00:44:00,18.6,-2.2,30.56,ENE,75,0.0,0.0,39,0.00,,---,0.00,VWS V14.00,2013-01-16 07:44:00,
2013-01-16 00:49:00,18.1,-2.2,30.56,ENE,75,0.0,0.0,40,0.00,,---,0.00,VWS V14.00,2013-01-16 07:49:00,
2013-01-16 00:54:00,17.5,-2.2,30.56,ENE,75,0.0,0.0,41,0.00,,---,0.00,VWS V14.00,2013-01-16 07:54:00,
2013-01-16 00:59:00,17.3,-2.3,30.56,ENE,75,0.0,0.0,41,0.00,,---,0.00,VWS V14.00,2013-01-16 07:59:00,
2013-01-16 01:04:00,17.4,-1.8,30.56,ENE,75,0.0,0.0,42,0.00,,---,0.00,VWS V14.00,2013-01-16 08:04:00,
2013-01-16 01:09:00,17.0,-1.6,30.56,ENE,75,0.0,0.0,43,0.00,,---,0.00,VWS V14.00,2013-01-16 08:09:00,
2013-01-16 01:14:00,16.4,-2.2,30.55,ENE,75,0.0,0.0,43,0.00,,---,0.00,VWS V14.00,2013-01-16 08:14:00,
2013-01-16 01:19:00,15.8,-2.2,30.56,ENE,75,0.0,0.0,44,0.00,,---,0.00,VWS V14.00,2013-01-16 08:19:00,
2013-01-16 01:24:00,15.4,-2.1,30.56,ENE,75,0.0,0.0,45,0.00,,---,0.00,VWS V14.00,2013-01-16 08:24:00,
2013-01-16 01:29:00,15.5,-1.6,30.56,ENE,75,0.0,0.0,46,0.00,,---,0.00,VWS V14.00,2013-01-16 08:29:00,
2013-01-16 01:34:00,14.7,-1.9,30.56,ENE,75,0.0,0.0,47,0.00,,---,0.00,VWS V14.00,2013-01-16 08:34:00,
2013-01-16 01:39:00,13.9,-2.2,30.56,ENE,75,0.0,0.0,48,0.00,,---,0.00,VWS V14.00,2013-01-16 08:39:00,
2013-01-16 01:44:00,14.3,-1.4,30.56,ENE,75,0.0,1.0,49,0.00,,---,0.00,VWS V14.00,2013-01-16 08:44:00,
2013-01-16 01:49:00,15.5,-1.1,30.56,ENE,75,0.0,1.0,47,0.00,,---,0.00,VWS V14.00,2013-01-16 08:49:00,
2013-01-16 01:54:00,15.7,-0.9,30.56,ENE,75,0.0,1.0,47,0.00,,---,0.00,VWS V14.00,2013-01-16 08:54:00,
2013-01-16 01:59:00,16.2,-0.9,30.56,ENE,75,0.0,1.0,46,0.00,,---,0.00,VWS V14.00,2013-01-16 08:59:00,
2013-01-16 02:04:00,16.9,-0.8,30.56,ENE,75,0.0,0.0,45,0.00,,---,0.00,VWS V14.00,2013-01-16 09:04:00,
2013-01-16 02:09:00,17.7,-0.5,30.56,ENE,75,0.0,0.0,44,0.00,,---,0.00,VWS V14.00,2013-01-16 09:09:00,
2013-01-16 02:14:00,18.8,0.0,30.56,ENE,75,0.0,0.0,43,0.00,,---,0.00,VWS V14.00,2013-01-16 09:14:00,
2013-01-16 02:19:00,18.5,-0.3,30.56,ENE,75,0.0,0.0,43,0.00,,---,0.00,VWS V14.00,2013-01-16 09:19:00,
2013-01-16 02:24:00,16.5,-1.6,30.55,ENE,75,0.0,0.0,44,0.00,,---,0.00,VWS V14.00,2013-01-16 09:24:00,
2013-01-16 02:29:00,16.1,-0.6,30.55,ENE,75,0.0,0.0,47,0.00,,---,0.00,VWS V14.00,2013-01-16 09:29:00,
2013-01-16 02:34:00,15.8,-0.9,30.55,ENE,75,0.0,0.0,47,0.00,,---,0.00,VWS V14.00,2013-01-16 09:34:00,
2013-01-16 02:39:00,15.3,-0.9,30.55,ENE,75,0.0,0.0,48,0.00,,---,0.00,VWS V14.00,2013-01-16 09:39:00,
2013-01-16 02:44:00,14.9,-0.8,30.55,ENE,75,0.0,0.0,49,0.00,,---,0.00,VWS V14.00,2013-01-16 09:44:00,
2013-01-16 02:49:00,15.3,-0.4,30.55,ENE,75,0.0,0.0,49,0.00,,---,0.00,VWS V14.00,2013-01-16 09:49:00,
2013-01-16 02:54:00,15.8,-0.4,30.55,ENE,75,0.0,0.0,48,0.00,,---,0.00,VWS V14.00,2013-01-16 09:54:00,
2013-01-16 02:59:00,16.3,-0.4,30.55,ENE,75,0.0,0.0,47,0.00,,---,0.00,VWS V14.00,2013-01-16 09:59:00,
2013-01-16 03:04:00,17.3,-0.4,30.56,ENE,75,0.0,0.0,45,0.00,,---,0.00,VWS V14.00,2013-01-16 10:04:00,
2013-01-16 03:09:00,18.5,0.2,30.55,ENE,75,0.0,0.0,44,0.00,,---,0.00,VWS V14.00,2013-01-16 10:09:00,
2013-01-16 03:14:00,19.0,-0.3,30.56,ENE,75,0.0,0.0,42,0.00,,---,0.00,VWS V14.00,2013-01-16 10:14:00,
2013-01-16 03:19:00,19.1,-0.2,30.55,ENE,75,0.0,0.0,42,0.00,,---,0.00,VWS V14.00,2013-01-16 10:19:00,
2013-01-16 03:24:00,19.5,-0.4,30.55,ENE,75,0.0,0.0,41,0.00,,---,0.00,VWS V14.00,2013-01-16 10:24:00,
2013-01-16 03:29:00,20.0,-0.4,30.55,ENE,75,0.0,0.0,40,0.00,,---,0.00,VWS V14.00,2013-01-16 10:29:00,
2013-01-16 03:34:00,19.3,-0.5,30.55,ENE,75,0.0,0.0,41,0.00,,---,0.00,VWS V14.00,2013-01-16 10:34:00,
2013-01-16 03:40:00,18.3,-0.4,30.55,ENE,75,0.0,0.0,43,0.00,,---,0.00,VWS V14.00,2013-01-16 10:40:00,
2013-01-16 03:45:00,17.6,-0.6,30.55,ENE,75,0.0,0.0,44,0.00,,---,0.00,VWS V14.00,2013-01-16 10:45:00,
2013-01-16 03:50:00,17.7,-0.5,30.54,ENE,75,0.0,0.0,44,0.00,,---,0.00,VWS V14.00,2013-01-16 10:50:00,
2013-01-16 03:55:00,18.1,-0.1,30.54,ENE,75,0.0,1.0,44,0.00,,---,0.00,VWS V14.00,2013-01-16 10:55:00,
2013-01-16 04:00:00,20.1,0.7,30.54,ENE,75,0.0,1.0,42,0.00,,---,0.00,VWS V14.00,2013-01-16 11:00:00,
2013-01-16 04:05:00,20.7,0.2,30.54,ENE,75,0.0,0.0,40,0.00,,---,0.00,VWS V14.00,2013-01-16 11:05:00,
2013-01-16 04:10:00,21.2,0.7,30.53,ENE,75,0.0,0.0,40,0.00,,---,0.00,VWS V14.00,2013-01-16 11:10:00,
2013-01-16 04:15:00,21.2,0.1,30.53,ENE,75,0.0,0.0,39,0.00,,---,0.00,VWS V14.00,2013-01-16 11:15:00,
2013-01-16 04:20:00,22.6,0.3,30.53,ENE,74,0.0,1.0,37,0.00,,---,0.00,VWS V14.00,2013-01-16 11:20:00,
2013-01-16 04:25:00,25.5,0.4,30.53,ENE,73,0.0,1.0,33,0.00,,---,0.00,VWS V14.00,2013-01-16 11:25:00,
2013-01-16 04:30:00,27.7,1.0,30.53,NE,40,0.0,5.0,31,0.00,,---,0.00,VWS V14.00,2013-01-16 11:30:00,
2013-01-16 04:35:00,29.1,0.8,30.53,NE,44,1.0,2.0,29,0.00,,---,0.00,VWS V14.00,2013-01-16 11:35:00,
2013-01-16 04:40:00,29.7,0.6,30.53,NE,43,0.0,2.0,28,0.00,,---,0.00,VWS V14.00,2013-01-16 11:40:00,
2013-01-16 04:45:00,29.4,1.1,30.53,NE,43,0.0,2.0,29,0.00,,---,0.00,VWS V14.00,2013-01-16 11:45:00,
2013-01-16 04:50:00,28.2,0.0,30.53,NE,43,0.0,2.0,29,0.00,,---,0.00,VWS V14.00,2013-01-16 11:50:00,
2013-01-16 04:55:00,27.2,-0.1,30.53,NE,43,0.0,2.0,30,0.00,,---,0.00,VWS V14.00,2013-01-16 11:55:00,
2013-01-16 05:00:00,26.3,-0.2,30.52,NE,45,0.0,2.0,31,0.00,,---,0.00,VWS V14.00,2013-01-16 12:00:00,
2013-01-16 05:05:00,26.0,-0.5,30.52,NE,45,0.0,0.0,31,0.00,,---,0.00,VWS V14.00,2013-01-16 12:05:00,
2013-01-16 05:10:00,25.2,-1.2,30.51,NE,45,0.0,0.0,31,0.00,,---,0.00,VWS V14.00,2013-01-16 12:10:00,
2013-01-16 05:15:00,24.8,-0.9,30.51,NE,45,0.0,1.0,32,0.00,,---,0.00,VWS V14.00,2013-01-16 12:15:00,
2013-01-16 05:20:00,24.5,-0.5,30.51,NE,45,0.0,1.0,33,0.00,,---,0.00,VWS V14.00,2013-01-16 12:20:00,
2013-01-16 05:25:00,24.5,-0.5,30.51,NE,45,0.0,1.0,33,0.00,,---,0.00,VWS V14.00,2013-01-16 12:25:00,
2013-01-16 05:30:00,24.5,-0.5,30.51,NE,45,0.0,1.0,33,0.00,,---,0.00,VWS V14.00,2013-01-16 12:30:00,
2013-01-16 05:35:00,24.3,-0.6,30.51,NE,45,0.0,0.0,33,0.00,,---,0.00,VWS V14.00,2013-01-16 12:35:00,
2013-01-16 05:40:00,24.1,-0.2,30.50,NE,45,0.0,0.0,34,0.00,,---,0.00,VWS V14.00,2013-01-16 12:40:00,
2013-01-16 05:45:00,23.6,-0.6,30.51,NE,45,0.0,0.0,34,0.00,,---,0.00,VWS V14.00,2013-01-16 12:45:00,
2013-01-16 05:50:00,23.5,-0.7,30.51,NE,45,0.0,0.0,34,0.00,,---,0.00,VWS V14.00,2013-01-16 12:50:00,
2013-01-16 05:55:00,23.1,-1.1,30.51,NE,45,0.0,0.0,34,0.00,,---,0.00,VWS V14.00,2013-01-16 12:55:00,
2013-01-16 06:00:00,22.6,-0.9,30.51,NE,45,0.0,0.0,35,0.00,,---,0.00,VWS V14.00,2013-01-16 13:00:00,
2013-01-16 06:05:00,21.8,-1.6,30.51,NE,45,0.0,0.0,35,0.00,,---,0.00,VWS V14.00,2013-01-16 13:05:00,
2013-01-16 06:10:00,21.2,-1.0,30.51,NE,45,0.0,0.0,37,0.00,,---,0.00,VWS V14.00,2013-01-16 13:10:00,
2013-01-16 06:15:00,21.0,-0.6,30.50,NE,45,0.0,0.0,38,0.00,,---,0.00,VWS V14.00,2013-01-16 13:15:00,
2013-01-16 06:20:00,20.7,-0.9,30.50,NE,45,0.0,0.0,38,0.00,,---,0.00,VWS V14.00,2013-01-16 13:20:00,
2013-01-16 06:25:00,20.2,-0.8,30.50,NE,45,0.0,0.0,39,0.00,,---,0.00,VWS V14.00,2013-01-16 13:25:00,
2013-01-16 06:30:00,19.9,-0.5,30.50,NE,46,0.0,2.0,40,0.00,,---,0.00,VWS V14.00,2013-01-16 13:30:00,
2013-01-16 06:35:00,19.5,-0.4,30.51,NE,46,0.0,0.0,41,0.00,,---,0.00,VWS V14.00,2013-01-16 13:35:00,
2013-01-16 06:40:00,19.9,-0.5,30.51,NE,46,0.0,0.0,40,0.00,,---,0.00,VWS V14.00,2013-01-16 13:40:00,
2013-01-16 06:45:00,20.7,-0.3,30.50,NE,46,0.0,0.0,39,0.00,,---,0.00,VWS V14.00,2013-01-16 13:45:00,
2013-01-16 06:50:00,21.1,-0.5,30.50,NE,46,0.0,0.0,38,0.00,,---,0.00,VWS V14.00,2013-01-16 13:50:00,
2013-01-16 06:55:00,21.3,-0.3,30.50,NE,46,0.0,0.0,38,0.00,,---,0.00,VWS V14.00,2013-01-16 13:55:00,
2013-01-16 07:00:00,20.5,-0.5,30.50,NE,46,0.0,0.0,39,0.00,,---,0.00,VWS V14.00,2013-01-16 14:00:00,
2013-01-16 07:05:00,19.6,-0.8,30.50,NE,46,0.0,0.0,40,0.00,,---,0.00,VWS V14.00,2013-01-16 14:05:00,
2013-01-16 07:10:00,19.3,-0.5,30.51,NE,46,0.0,0.0,41,0.00,,---,0.00,VWS V14.00,2013-01-16 14:10:00,
2013-01-16 07:15:00,19.0,-0.8,30.51,NE,46,0.0,0.0,41,0.00,,---,0.00,VWS V14.00,2013-01-16 14:15:00,
2013-01-16 07:20:00,19.6,-0.3,30.51,NE,46,0.0,1.0,41,0.00,,---,0.00,VWS V14.00,2013-01-16 14:20:00,
2013-01-16 07:25:00,20.7,-0.3,30.50,NE,46,0.0,1.0,39,0.00,,---,0.00,VWS V14.00,2013-01-16 14:25:00,
2013-01-16 07:30:00,21.2,0.1,30.50,NE,51,0.0,2.0,39,0.00,,---,0.00,VWS V14.00,2013-01-16 14:30:00,
2013-01-16 07:35:00,21.9,0.2,30.50,ENE,62,0.0,1.0,38,0.00,,---,0.00,VWS V14.00,2013-01-16 14:35:00,
2013-01-16 07:40:00,22.4,0.1,30.51,ENE,64,0.0,1.0,37,0.00,,---,0.00,VWS V14.00,2013-01-16 14:40:00,
2013-01-16 07:45:00,22.8,-0.1,30.51,ENE,65,0.0,1.0,36,0.00,,---,0.00,VWS V14.00,2013-01-16 14:45:00,
2013-01-16 07:50:00,23.1,0.1,30.51,ENE,65,0.0,1.0,36,0.00,,---,0.00,VWS V14.00,2013-01-16 14:50:00,
2013-01-16 07:55:00,23.2,0.2,30.51,ENE,65,0.0,1.0,36,0.00,,---,0.00,VWS V14.00,2013-01-16 14:55:00,
2013-01-16 08:00:00,23.1,0.1,30.52,ENE,65,0.0,1.0,36,0.00,,---,0.00,VWS V14.00,2013-01-16 15:00:00,
2013-01-16 08:05:00,22.6,0.8,30.52,ENE,65,0.0,0.0,38,0.00,,---,0.00,VWS V14.00,2013-01-16 15:05:00,
2013-01-16 08:10:00,22.7,0.9,30.52,ENE,65,0.0,0.0,38,0.00,,---,0.00,VWS V14.00,2013-01-16 15:10:00,
2013-01-16 08:15:00,23.9,2.0,30.52,ENE,65,0.0,1.0,38,0.00,,---,0.00,VWS V14.00,2013-01-16 15:15:00,
2013-01-16 08:20:00,25.1,1.9,30.52,ENE,65,0.0,1.0,36,0.00,,---,0.00,VWS V14.00,2013-01-16 15:20:00,
2013-01-16 08:25:00,26.4,3.7,30.52,ENE,65,0.0,1.0,37,0.00,,---,0.00,VWS V14.00,2013-01-16 15:25:00,
2013-01-16 08:30:00,27.5,2.8,30.52,ENE,65,0.0,1.0,34,0.00,,---,0.00,VWS V14.00,2013-01-16 15:30:00,
2013-01-16 08:35:00,28.4,1.6,30.52,ENE,65,0.0,0.0,31,0.00,,---,0.00,VWS V14.00,2013-01-16 15:35:00,
2013-01-16 08:40:00,29.3,2.4,30.52,ENE,65,0.0,0.0,31,0.00,,---,0.00,VWS V14.00,2013-01-16 15:40:00,
2013-01-16 08:45:00,30.0,2.3,30.53,ENE,65,0.0,0.0,30,0.00,,---,0.00,VWS V14.00,2013-01-16 15:45:00,
2013-01-16 08:50:00,31.1,1.8,30.53,ENE,65,0.0,0.0,28,0.00,,---,0.00,VWS V14.00,2013-01-16 15:50:00,
2013-01-16 08:55:00,31.9,1.7,30.53,ENE,65,0.0,0.0,27,0.00,,---,0.00,VWS V14.00,2013-01-16 15:55:00,
2013-01-16 09:00:00,32.4,2.2,30.53,ENE,65,0.0,0.0,27,0.00,,---,0.00,VWS V14.00,2013-01-16 16:00:00,
2013-01-16 09:05:00,32.9,1.8,30.53,ENE,64,1.0,3.0,26,0.00,,---,0.00,VWS V14.00,2013-01-16 16:05:00,
2013-01-16 09:10:00,33.4,2.2,30.53,ENE,64,0.0,3.0,26,0.00,,---,0.00,VWS V14.00,2013-01-16 16:10:00,
2013-01-16 09:15:00,34.0,1.9,30.53,ENE,64,0.0,3.0,25,0.00,,---,0.00,VWS V14.00,2013-01-16 16:15:00,
2013-01-16 09:20:00,34.5,1.4,30.53,ENE,64,0.0,3.0,24,0.00,,---,0.00,VWS V14.00,2013-01-16 16:20:00,
2013-01-16 09:25:00,34.8,1.7,30.53,ENE,64,0.0,3.0,24,0.00,,---,0.00,VWS V14.00,2013-01-16 16:25:00,
2013-01-16 09:30:00,35.2,1.1,30.53,ENE,64,0.0,3.0,23,0.00,,---,0.00,VWS V14.00,2013-01-16 16:30:00,
2013-01-16 09:35:00,35.6,1.5,30.53,ENE,64,0.0,1.0,23,0.00,,---,0.00,VWS V14.00,2013-01-16 16:35:00,
2013-01-16 09:40:00,35.9,1.7,30.53,ENE,64,0.0,1.0,23,0.00,,---,0.00,VWS V14.00,2013-01-16 16:40:00,
2013-01-16 09:45:00,36.3,2.1,30.53,ENE,64,0.0,1.0,23,0.00,,---,0.00,VWS V14.00,2013-01-16 16:45:00,
2013-01-16 09:50:00,36.8,2.5,30.53,ENE,65,0.0,1.0,23,0.00,,---,0.00,VWS V14.00,2013-01-16 16:50:00,
2013-01-16 09:55:00,36.9,1.6,30.53,ENE,65,0.0,1.0,22,0.00,,---,0.00,VWS V14.00,2013-01-16 16:55:00,
2013-01-16 10:00:00,37.3,2.0,30.53,ENE,65,0.0,3.0,22,0.00,,---,0.00,VWS V14.00,2013-01-16 17:00:00,
2013-01-16 10:05:00,37.6,2.2,30.53,ENE,65,0.0,2.0,22,0.00,,---,0.00,VWS V14.00,2013-01-16 17:05:00,
2013-01-16 10:10:00,38.0,2.5,30.53,East,86,0.0,2.0,22,0.00,,---,0.00,VWS V14.00,2013-01-16 17:10:00,
2013-01-16 10:15:00,38.6,3.0,30.53,ESE,105,2.0,2.0,22,0.00,,---,0.00,VWS V14.00,2013-01-16 17:15:00,
2013-01-16 10:20:00,38.9,2.3,30.53,SSE,159,1.0,3.0,21,0.00,,---,0.00,VWS V14.00,2013-01-16 17:20:00,
2013-01-16 10:25:00,38.7,3.1,30.53,South,174,0.0,3.0,22,0.00,,---,0.00,VWS V14.00,2013-01-16 17:25:00,
2013-01-16 10:30:00,39.0,3.4,30.53,South,175,0.0,3.0,22,0.00,,---,0.00,VWS V14.00,2013-01-16 17:30:00,
2013-01-16 10:35:00,39.6,2.9,30.53,SW,224,0.0,2.0,21,0.00,,---,0.00,VWS V14.00,2013-01-16 17:35:00,
2013-01-16 10:40:00,40.3,3.5,30.53,SW,223,0.0,2.0,21,0.00,,---,0.00,VWS V14.00,2013-01-16 17:40:00,
2013-01-16 10:45:00,40.7,2.8,30.52,SW,226,1.0,2.0,20,0.00,,---,0.00,VWS V14.00,2013-01-16 17:45:00,
2013-01-16 10:50:00,40.6,2.7,30.52,SW,226,0.0,2.0,20,0.00,,---,0.00,VWS V14.00,2013-01-16 17:50:00,
2013-01-16 10:55:00,40.7,2.8,30.52,SSW,204,2.0,4.0,20,0.00,,---,0.00,VWS V14.00,2013-01-16 17:55:00,
2013-01-16 11:00:00,40.9,2.9,30.51,SSW,205,0.0,4.0,20,0.00,,---,0.00,VWS V14.00,2013-01-16 18:00:00,
2013-01-16 11:05:00,41.1,3.1,30.51,South,180,2.0,4.0,20,0.00,,---,0.00,VWS V14.00,2013-01-16 18:05:00,
2013-01-16 11:10:00,41.2,3.2,30.51,WSW,244,1.0,4.0,20,0.00,,---,0.00,VWS V14.00,2013-01-16 18:10:00,
2013-01-16 11:15:00,41.1,3.1,30.51,WSW,244,0.0,4.0,20,0.00,,---,0.00,VWS V14.00,2013-01-16 18:15:00,
2013-01-16 11:20:00,41.3,3.3,30.50,WSW,240,1.0,4.0,20,0.00,,---,0.00,VWS V14.00,2013-01-16 18:20:00,
2013-01-16 11:25:00,41.5,3.4,30.50,WSW,243,4.0,4.0,20,0.00,,---,0.00,VWS V14.00,2013-01-16 18:25:00,
2013-01-16 11:30:00,41.9,3.8,30.50,SW,225,0.0,4.0,20,0.00,,---,0.00,VWS V14.00,2013-01-16 18:30:00,
2013-01-16 11:35:00,42.8,3.4,30.50,South,169,0.0,2.0,19,0.00,,---,0.00,VWS V14.00,2013-01-16 18:35:00,
2013-01-16 11:40:00,43.4,3.9,30.50,SE,145,0.0,5.0,19,0.00,,---,0.00,VWS V14.00,2013-01-16 18:40:00,
2013-01-16 11:46:00,44.1,4.5,30.49,SE,146,0.0,5.0,19,0.00,,---,0.00,VWS V14.00,2013-01-16 18:46:00,
2013-01-16 11:51:00,44.4,4.7,30.49,WSW,251,0.0,5.0,19,0.00,,---,0.00,VWS V14.00,2013-01-16 18:51:00,
2013-01-16 11:56:00,44.5,3.7,30.48,SSW,212,1.0,5.0,18,0.00,,---,0.00,VWS V14.00,2013-01-16 18:56:00,
2013-01-16 12:01:00,44.8,3.9,30.49,South,185,3.0,5.0,18,0.00,,---,0.00,VWS V14.00,2013-01-16 19:01:00,
2013-01-16 12:06:00,44.6,3.7,30.48,SW,225,0.0,3.0,18,0.00,,---,0.00,VWS V14.00,2013-01-16 19:06:00,
2013-01-16 12:11:00,44.5,3.7,30.48,SW,230,1.0,3.0,18,0.00,,---,0.00,VWS V14.00,2013-01-16 19:11:00,
2013-01-16 12:16:00,44.4,3.6,30.47,WSW,249,0.0,3.0,18,0.00,,---,0.00,VWS V14.00,2013-01-16 19:16:00,
2013-01-16 12:21:00,44.8,3.9,30.47,WSW,249,0.0,3.0,18,0.00,,---,0.00,VWS V14.00,2013-01-16 19:21:00,
2013-01-16 12:26:00,45.0,4.1,30.47,SW,236,0.0,4.0,18,0.00,,---,0.00,VWS V14.00,2013-01-16 19:26:00,
2013-01-16 12:31:00,45.2,4.2,30.46,SW,234,0.0,4.0,18,0.00,,---,0.00,VWS V14.00,2013-01-16 19:31:00,
2013-01-16 12:36:00,45.8,4.7,30.45,WSW,240,4.0,4.0,18,0.00,,---,0.00,VWS V14.00,2013-01-16 19:36:00,
2013-01-16 12:41:00,45.9,4.8,30.44,South,173,1.0,5.0,18,0.00,,---,0.00,VWS V14.00,2013-01-16 19:41:00,
2013-01-16 12:46:00,46.5,4.1,30.44,South,175,0.0,5.0,17,0.00,,---,0.00,VWS V14.00,2013-01-16 19:46:00,
2013-01-16 12:51:00,46.8,4.3,30.44,South,184,0.0,5.0,17,0.00,,---,0.00,VWS V14.00,2013-01-16 19:51:00,
2013-01-16 12:56:00,47.0,4.5,30.44,SE,126,0.0,5.0,17,0.00,,---,0.00,VWS V14.00,2013-01-16 19:56:00,
2013-01-16 13:01:00,47.6,4.9,30.43,SE,125,1.0,5.0,17,0.00,,---,0.00,VWS V14.00,2013-01-16 20:01:00,
2013-01-16 13:06:00,48.4,5.6,30.43,ENE,75,0.0,3.0,17,0.00,,---,0.00,VWS V14.00,2013-01-16 20:06:00,
2013-01-16 13:11:00,48.5,5.7,30.43,SSE,152,1.0,3.0,17,0.00,,---,0.00,VWS V14.00,2013-01-16 20:11:00,
2013-01-16 13:16:00,49.2,4.9,30.42,SSW,194,0.0,10.0,16,0.00,,---,0.00,VWS V14.00,2013-01-16 20:16:00,
2013-01-16 13:21:00,49.5,5.2,30.42,SSE,166,1.0,10.0,16,0.00,,---,0.00,VWS V14.00,2013-01-16 20:21:00,
2013-01-16 13:26:00,49.4,5.1,30.42,SW,229,2.0,10.0,16,0.00,,---,0.00,VWS V14.00,2013-01-16 20:26:00,
2013-01-16 13:31:00,49.4,5.1,30.42,SW,227,0.0,10.0,16,0.00,,---,0.00,VWS V14.00,2013-01-16 20:31:00,
2013-01-16 13:36:00,49.6,5.3,30.42,SW,235,0.0,2.0,16,0.00,,---,0.00,VWS V14.00,2013-01-16 20:36:00,
2013-01-16 13:41:00,49.9,5.5,30.41,WSW,238,1.0,4.0,16,0.00,,---,0.00,VWS V14.00,2013-01-16 20:41:00,
2013-01-16 13:46:00,49.9,5.5,30.41,WSW,238,0.0,4.0,16,0.00,,---,0.00,VWS V14.00,2013-01-16 20:46:00,
2013-01-16 13:51:00,50.3,5.8,30.41,SW,232,2.0,5.0,16,0.00,,---,0.00,VWS V14.00,2013-01-16 20:51:00,
2013-01-16 13:56:00,50.1,5.7,30.41,West,268,2.0,5.0,16,0.00,,---,0.00,VWS V14.00,2013-01-16 20:56:00,
2013-01-16 14:01:00,49.6,5.3,30.41,West,272,8.0,11.0,16,0.00,,---,0.00,VWS V14.00,2013-01-16 21:01:00,
2013-01-16 14:06:00,49.1,6.2,30.40,WNW,294,2.0,8.0,17,0.00,,---,0.00,VWS V14.00,2013-01-16 21:06:00,
2013-01-16 14:11:00,48.9,4.7,30.41,NNW,337,3.0,8.0,16,0.00,,---,0.00,VWS V14.00,2013-01-16 21:11:00,
2013-01-16 14:16:00,49.3,6.3,30.40,NW,304,1.0,8.0,17,0.00,,---,0.00,VWS V14.00,2013-01-16 21:16:00,
2013-01-16 14:21:00,50.0,5.6,30.40,WNW,296,1.0,8.0,16,0.00,,---,0.00,VWS V14.00,2013-01-16 21:21:00,
2013-01-16 14:26:00,50.1,5.7,30.40,West,275,1.0,8.0,16,0.00,,---,0.00,VWS V14.00,2013-01-16 21:26:00,
2013-01-16 14:31:00,50.2,5.8,30.39,West,275,3.0,8.0,16,0.00,,---,0.00,VWS V14.00,2013-01-16 21:31:00,
2013-01-16 14:36:00,50.2,5.8,30.39,NW,325,1.0,4.0,16,0.00,,---,0.00,VWS V14.00,2013-01-16 21:36:00,
2013-01-16 14:41:00,50.1,5.7,30.39,West,273,2.0,4.0,16,0.00,,---,0.00,VWS V14.00,2013-01-16 21:41:00,
2013-01-16 14:46:00,50.1,5.7,30.39,NW,315,0.0,4.0,16,0.00,,---,0.00,VWS V14.00,2013-01-16 21:46:00,
2013-01-16 14:51:00,50.5,6.0,30.39,WNW,299,0.0,4.0,16,0.00,,---,0.00,VWS V14.00,2013-01-16 21:51:00,
2013-01-16 14:56:00,50.6,7.4,30.39,NW,325,1.0,4.0,17,0.00,,---,0.00,VWS V14.00,2013-01-16 21:56:00,
2013-01-16 15:01:00,50.9,6.3,30.39,WNW,295,0.0,4.0,16,0.00,,---,0.00,VWS V14.00,2013-01-16 22:01:00,
2013-01-16 15:06:00,50.8,6.2,30.39,West,264,1.0,2.0,16,0.00,,---,0.00,VWS V14.00,2013-01-16 22:06:00,
2013-01-16 15:11:00,50.9,7.7,30.39,West,273,1.0,3.0,17,0.00,,---,0.00,VWS V14.00,2013-01-16 22:11:00,
2013-01-16 15:16:00,51.2,6.6,30.39,West,277,0.0,3.0,16,0.00,,---,0.00,VWS V14.00,2013-01-16 22:16:00,
2013-01-16 15:21:00,51.1,6.5,30.39,West,278,0.0,3.0,16,0.00,,---,0.00,VWS V14.00,2013-01-16 22:21:00,
2013-01-16 15:26:00,50.9,7.7,30.39,West,267,1.0,3.0,17,0.00,,---,0.00,VWS V14.00,2013-01-16 22:26:00,
2013-01-16 15:31:00,51.0,7.7,30.39,NW,312,1.0,6.0,17,0.00,,---,0.00,VWS V14.00,2013-01-16 22:31:00,
2013-01-16 15:36:00,51.3,8.0,30.39,West,265,2.0,3.0,17,0.00,,---,0.00,VWS V14.00,2013-01-16 22:36:00,
2013-01-16 15:41:00,51.5,6.8,30.39,WSW,242,2.0,3.0,16,0.00,,---,0.00,VWS V14.00,2013-01-16 22:41:00,
2013-01-16 15:46:00,51.5,6.8,30.39,SW,233,0.0,3.0,16,0.00,,---,0.00,VWS V14.00,2013-01-16 22:46:00,
2013-01-16 15:51:00,51.8,7.1,30.39,SW,234,0.0,3.0,16,0.00,,---,0.00,VWS V14.00,2013-01-16 22:51:00,
2013-01-16 15:56:00,52.5,7.6,30.39,SW,234,0.0,3.0,16,0.00,,---,0.00,VWS V14.00,2013-01-16 22:56:00,
2013-01-16 16:01:00,52.8,7.9,30.39,SW,234,0.0,3.0,16,0.00,,---,0.00,VWS V14.00,2013-01-16 23:01:00,
2013-01-16 16:06:00,53.1,8.1,30.39,SW,234,1.0,1.0,16,0.00,,---,0.00,VWS V14.00,2013-01-16 23:06:00,
2013-01-16 16:11:00,53.0,8.0,30.39,SW,235,0.0,3.0,16,0.00,,---,0.00,VWS V14.00,2013-01-16 23:11:00,
2013-01-16 16:16:00,52.9,9.3,30.39,SW,235,0.0,3.0,17,0.00,,---,0.00,VWS V14.00,2013-01-16 23:16:00,
2013-01-16 16:21:00,52.6,10.3,30.39,SE,131,1.0,5.0,18,0.00,,---,0.00,VWS V14.00,2013-01-16 23:21:00,
2013-01-16 16:26:00,52.3,10.1,30.39,ESE,119,0.0,10.0,18,0.00,,---,0.00,VWS V14.00,2013-01-16 23:26:00,
2013-01-16 16:31:00,51.8,9.7,30.39,NE,54,0.0,10.0,18,0.00,,---,0.00,VWS V14.00,2013-01-16 23:31:00,
2013-01-16 16:36:00,51.7,9.6,30.39,ENE,65,2.0,3.0,18,0.00,,---,0.00,VWS V14.00,2013-01-16 23:36:00,
2013-01-16 16:41:00,51.2,9.2,30.39,East,82,1.0,5.0,18,0.00,,---,0.00,VWS V14.00,2013-01-16 23:41:00,
2013-01-16 16:46:00,50.6,8.7,30.39,ENE,71,1.0,5.0,18,0.00,,---,0.00,VWS V14.00,2013-01-16 23:46:00,
2013-01-16 16:51:00,50.0,8.2,30.39,ENE,73,4.0,5.0,18,0.00,,---,0.00,VWS V14.00,2013-01-16 23:51:00,
2013-01-16 16:56:00,49.2,7.5,30.39,ENE,74,2.0,5.0,18,0.00,,---,0.00,VWS V14.00,2013-01-16 23:56:00,
2013-01-16 17:01:00,48.2,7.9,30.39,ENE,67,2.0,2.0,19,0.00,,---,0.00,VWS V14.00,2013-01-17 00:01:00,
2013-01-16 17:06:00,47.5,7.3,30.40,ENE,76,1.0,2.0,19,0.00,,---,0.00,VWS V14.00,2013-01-17 00:06:00,
2013-01-16 17:11:00,47.1,8.1,30.40,ENE,70,1.0,5.0,20,0.00,,---,0.00,VWS V14.00,2013-01-17 00:11:00,
2013-01-16 17:16:00,46.7,7.8,30.40,East,80,4.0,5.0,20,0.00,,---,0.00,VWS V14.00,2013-01-17 00:16:00,
2013-01-16 17:21:00,46.3,7.4,30.40,ENE,75,2.0,6.0,20,0.00,,---,0.00,VWS V14.00,2013-01-17 00:21:00,
2013-01-16 17:26:00,46.0,7.2,30.40,ENE,78,0.0,6.0,20,0.00,,---,0.00,VWS V14.00,2013-01-17 00:26:00,
2013-01-16 17:31:00,45.5,6.8,30.40,ENE,78,1.0,3.0,20,0.00,,---,0.00,VWS V14.00,2013-01-17 00:31:00,
2013-01-16 17:36:00,44.9,6.3,30.40,ENE,78,0.0,3.0,20,0.00,,---,0.00,VWS V14.00,2013-01-17 00:36:00,
2013-01-16 17:41:00,44.4,6.9,30.39,ENE,70,1.0,4.0,21,0.00,,---,0.00,VWS V14.00,2013-01-17 00:41:00,
2013-01-16 17:46:00,44.2,6.8,30.40,ENE,72,1.0,4.0,21,0.00,,---,0.00,VWS V14.00,2013-01-17 00:46:00,
2013-01-16 17:51:00,43.9,6.5,30.40,ENE,73,0.0,4.0,21,0.00,,---,0.00,VWS V14.00,2013-01-17 00:51:00,
2013-01-16 17:56:00,43.6,6.2,30.40,ENE,67,0.0,4.0,21,0.00,,---,0.00,VWS V14.00,2013-01-17 00:56:00,
2013-01-16 18:01:00,43.4,6.1,30.40,ENE,67,0.0,0.0,21,0.00,,---,0.00,VWS V14.00,2013-01-17 01:01:00,
2013-01-16 18:07:00,43.2,6.9,30.40,ENE,67,0.0,2.0,22,0.00,,---,0.00,VWS V14.00,2013-01-17 01:07:00,
2013-01-16 18:12:00,42.7,6.5,30.40,ENE,67,1.0,3.0,22,0.00,,---,0.00,VWS V14.00,2013-01-17 01:12:00,
2013-01-16 18:17:00,42.5,6.3,30.40,ENE,69,0.0,6.0,22,0.00,,---,0.00,VWS V14.00,2013-01-17 01:17:00,
2013-01-16 18:22:00,42.4,6.3,30.41,ENE,65,1.0,6.0,22,0.00,,---,0.00,VWS V14.00,2013-01-17 01:22:00,
2013-01-16 18:27:00,42.2,6.1,30.40,ENE,65,0.0,6.0,22,0.00,,---,0.00,VWS V14.00,2013-01-17 01:27:00,
2013-01-16 18:32:00,41.7,5.7,30.40,ENE,66,0.0,0.0,22,0.00,,---,0.00,VWS V14.00,2013-01-17 01:32:00,
2013-01-16 18:37:00,41.4,6.4,30.40,ENE,78,1.0,3.0,23,0.00,,---,0.00,VWS V14.00,2013-01-17 01:37:00,
2013-01-16 18:42:00,41.6,5.6,30.40,East,86,3.0,4.0,22,0.00,,---,0.00,VWS V14.00,2013-01-17 01:42:00,
2013-01-16 18:47:00,41.8,5.8,30.40,East,85,0.0,4.0,22,0.00,,---,0.00,VWS V14.00,2013-01-17 01:47:00,
2013-01-16 18:52:00,41.7,5.7,30.40,East,84,0.0,4.0,22,0.00,,---,0.00,VWS V14.00,2013-01-17 01:52:00,
2013-01-16 18:57:00,41.5,6.5,30.40,East,85,0.0,4.0,23,0.00,,---,0.00,VWS V14.00,2013-01-17 01:57:00,
2013-01-16 19:02:00,41.3,6.3,30.40,East,85,0.0,0.0,23,0.00,,---,0.00,VWS V14.00,2013-01-17 02:02:00,
2013-01-16 19:07:00,41.0,6.1,30.40,East,84,0.0,2.0,23,0.00,,---,0.00,VWS V14.00,2013-01-17 02:07:00,
2013-01-16 19:12:00,41.3,6.3,30.40,East,85,0.0,2.0,23,0.00,,---,0.00,VWS V14.00,2013-01-17 02:12:00,
2013-01-16 19:17:00,41.4,6.4,30.40,East,86,0.0,2.0,23,0.00,,---,0.00,VWS V14.00,2013-01-17 02:17:00,
2013-01-16 19:22:00,41.2,6.2,30.40,East,86,0.0,2.0,23,0.00,,---,0.00,VWS V14.00,2013-01-17 02:22:00,
2013-01-16 19:27:00,41.2,7.2,30.40,East,86,1.0,3.0,24,0.00,,---,0.00,VWS V14.00,2013-01-17 02:27:00,
2013-01-16 19:32:00,41.4,6.4,30.40,ENE,72,0.0,0.0,23,0.00,,---,0.00,VWS V14.00,2013-01-17 02:32:00,
2013-01-16 19:37:00,41.6,7.5,30.40,East,79,0.0,3.0,24,0.00,,---,0.00,VWS V14.00,2013-01-17 02:37:00,
2013-01-16 19:42:00,41.8,7.7,30.40,ENE,77,3.0,3.0,24,0.00,,---,0.00,VWS V14.00,2013-01-17 02:42:00,
2013-01-16 19:47:00,42.0,6.9,30.40,ENE,60,0.0,4.0,23,0.00,,---,0.00,VWS V14.00,2013-01-17 02:47:00,
2013-01-16 19:52:00,42.1,7.0,30.41,ENE,71,3.0,4.0,23,0.00,,---,0.00,VWS V14.00,2013-01-17 02:52:00,
2013-01-16 19:57:00,42.1,7.0,30.41,ENE,69,2.0,4.0,23,0.00,,---,0.00,VWS V14.00,2013-01-17 02:57:00,
2013-01-16 20:02:00,42.0,6.9,30.41,ENE,58,1.0,2.0,23,0.00,,---,0.00,VWS V14.00,2013-01-17 03:02:00,
2013-01-16 20:07:00,41.7,6.7,30.40,ENE,59,1.0,2.0,23,0.00,,---,0.00,VWS V14.00,2013-01-17 03:07:00,
2013-01-16 20:12:00,41.5,7.4,30.40,ENE,63,0.0,4.0,24,0.00,,---,0.00,VWS V14.00,2013-01-17 03:12:00,
2013-01-16 20:17:00,41.3,7.2,30.40,ENE,62,1.0,4.0,24,0.00,,---,0.00,VWS V14.00,2013-01-17 03:17:00,
2013-01-16 20:22:00,41.1,7.1,30.39,ENE,62,0.0,4.0,24,0.00,,---,0.00,VWS V14.00,2013-01-17 03:22:00,
2013-01-16 20:27:00,40.9,7.8,30.40,ENE,64,0.0,4.0,25,0.00,,---,0.00,VWS V14.00,2013-01-17 03:27:00,
2013-01-16 20:32:00,40.9,6.9,30.40,ENE,69,0.0,2.0,24,0.00,,---,0.00,VWS V14.00,2013-01-17 03:32:00,
2013-01-16 20:37:00,40.8,7.7,30.40,ENE,69,1.0,3.0,25,0.00,,---,0.00,VWS V14.00,2013-01-17 03:37:00,
2013-01-16 20:42:00,40.9,7.8,30.40,ENE,74,0.0,3.0,25,0.00,,---,0.00,VWS V14.00,2013-01-17 03:42:00,
2013-01-16 20:48:00,40.8,7.7,30.39,ENE,74,0.0,4.0,25,0.00,,---,0.00,VWS V14.00,2013-01-17 03:48:00,
2013-01-16 20:53:00,41.1,8.0,30.39,East,82,0.0,5.0,25,0.00,,---,0.00,VWS V14.00,2013-01-17 03:53:00,
2013-01-16 20:58:00,41.7,7.6,30.39,ENE,68,0.0,6.0,24,0.00,,---,0.00,VWS V14.00,2013-01-17 03:58:00,
2013-01-16 21:03:00,41.7,8.5,30.39,ENE,72,2.0,3.0,25,0.00,,---,0.00,VWS V14.00,2013-01-17 04:03:00,
2013-01-16 21:08:00,41.6,8.4,30.39,ENE,67,0.0,4.0,25,0.00,,---,0.00,VWS V14.00,2013-01-17 04:08:00,
2013-01-16 21:13:00,41.4,8.2,30.39,ENE,68,0.0,4.0,25,0.00,,---,0.00,VWS V14.00,2013-01-17 04:13:00,
2013-01-16 21:18:00,41.1,8.0,30.39,ENE,69,1.0,4.0,25,0.00,,---,0.00,VWS V14.00,2013-01-17 04:18:00,
2013-01-16 21:23:00,41.1,8.0,30.38,ENE,69,0.0,4.0,25,0.00,,---,0.00,VWS V14.00,2013-01-17 04:23:00,
2013-01-16 21:28:00,41.1,8.0,30.38,ENE,70,0.0,4.0,25,0.00,,---,0.00,VWS V14.00,2013-01-17 04:28:00,
2013-01-16 21:33:00,41.2,8.9,30.38,ENE,75,1.0,3.0,26,0.00,,---,0.00,VWS V14.00,2013-01-17 04:33:00,
2013-01-16 21:38:00,41.4,9.1,30.38,East,82,1.0,4.0,26,0.00,,---,0.00,VWS V14.00,2013-01-17 04:38:00,
2013-01-16 21:43:00,41.9,8.7,30.38,ENE,78,1.0,4.0,25,0.00,,---,0.00,VWS V14.00,2013-01-17 04:43:00,
2013-01-16 21:48:00,42.0,8.7,30.38,East,80,1.0,4.0,25,0.00,,---,0.00,VWS V14.00,2013-01-17 04:48:00,
2013-01-16 21:53:00,41.8,9.4,30.38,ESE,113,2.0,4.0,26,0.00,,---,0.00,VWS V14.00,2013-01-17 04:53:00,
2013-01-16 21:58:00,41.6,9.3,30.38,ENE,78,1.0,4.0,26,0.00,,---,0.00,VWS V14.00,2013-01-17 04:58:00,
2013-01-16 22:00:00,41.6,9.3,30.38,East,80,1.0,4.0,26,0.00,,---,0.00,VWS V14.00,2013-01-17 05:00:00,
2013-01-16 22:01:00,41.5,9.2,30.38,East,80,1.0,1.0,26,0.00,,---,0.00,VWS V14.00,2013-01-17 05:01:00,
2013-01-16 22:02:00,41.5,9.2,30.38,East,82,2.0,2.0,26,0.00,,---,0.00,VWS V14.00,2013-01-17 05:02:00,
2013-01-16 22:07:00,41.4,9.1,30.38,East,88,0.0,3.0,26,0.00,,---,0.00,VWS V14.00,2013-01-17 05:07:00,
2013-01-16 22:12:00,41.5,9.2,30.38,ENE,69,0.0,3.0,26,0.00,,---,0.00,VWS V14.00,2013-01-17 05:12:00,
2013-01-16 22:17:00,42.0,9.6,30.38,East,79,0.0,5.0,26,0.00,,---,0.00,VWS V14.00,2013-01-17 05:17:00,
2013-01-16 22:22:00,42.5,9.2,30.38,ENE,76,1.0,5.0,25,0.00,,---,0.00,VWS V14.00,2013-01-17 05:22:00,
2013-01-16 22:27:00,42.3,9.0,30.38,ENE,76,2.0,5.0,25,0.00,,---,0.00,VWS V14.00,2013-01-17 05:27:00,
2013-01-16 22:32:00,42.0,9.6,30.39,ENE,65,0.0,0.0,26,0.00,,---,0.00,VWS V14.00,2013-01-17 05:32:00,
2013-01-16 22:37:00,41.6,9.3,30.38,ENE,65,0.0,0.0,26,0.00,,---,0.00,VWS V14.00,2013-01-17 05:37:00,
2013-01-16 22:42:00,41.0,8.8,30.38,ENE,65,0.0,0.0,26,0.00,,---,0.00,VWS V14.00,2013-01-17 05:42:00,
2013-01-16 22:47:00,40.5,9.2,30.38,ENE,65,0.0,0.0,27,0.00,,---,0.00,VWS V14.00,2013-01-17 05:47:00,
2013-01-16 22:52:00,40.2,8.9,30.38,ENE,66,0.0,1.0,27,0.00,,---,0.00,VWS V14.00,2013-01-17 05:52:00,
2013-01-16 22:57:00,40.1,8.8,30.38,ENE,66,0.0,1.0,27,0.00,,---,0.00,VWS V14.00,2013-01-17 05:57:00,
2013-01-16 23:02:00,39.9,9.4,30.37,ENE,66,0.0,0.0,28,0.00,,---,0.00,VWS V14.00,2013-01-17 06:02:00,
2013-01-16 23:07:00,39.8,9.4,30.37,ENE,66,0.0,0.0,28,0.00,,---,0.00,VWS V14.00,2013-01-17 06:07:00,
2013-01-16 23:12:00,39.5,9.1,30.37,ENE,66,0.0,0.0,28,0.00,,---,0.00,VWS V14.00,2013-01-17 06:12:00,
2013-01-16 23:17:00,39.3,8.9,30.36,ENE,66,0.0,0.0,28,0.00,,---,0.00,VWS V14.00,2013-01-17 06:17:00,
2013-01-16 23:22:00,39.9,9.4,30.36,ENE,66,0.0,0.0,28,0.00,,---,0.00,VWS V14.00,2013-01-17 06:22:00,
2013-01-16 23:27:00,40.3,9.8,30.36,ENE,66,0.0,0.0,28,0.00,,---,0.00,VWS V14.00,2013-01-17 06:27:00,
2013-01-16 23:33:00,40.7,10.1,30.36,ENE,69,0.0,0.0,28,0.00,,---,0.00,VWS V14.00,2013-01-17 06:33:00,
2013-01-16 23:38:00,40.8,9.4,30.36,ENE,69,0.0,0.0,27,0.00,,---,0.00,VWS V14.00,2013-01-17 06:38:00,
2013-01-16 23:43:00,40.0,8.7,30.36,ENE,69,0.0,0.0,27,0.00,,---,0.00,VWS V14.00,2013-01-17 06:43:00,
2013-01-16 23:48:00,38.9,8.6,30.35,ENE,69,0.0,0.0,28,0.00,,---,0.00,VWS V14.00,2013-01-17 06:48:00,
2013-01-16 23:53:00,37.7,7.6,30.36,ENE,69,0.0,0.0,28,0.00,,---,0.00,VWS V14.00,2013-01-17 06:53:00,
2013-01-16 23:58:00,36.5,8.0,30.35,ENE,69,0.0,0.0,30,0.00,,---,0.00,VWS V14.00,2013-01-17 06:58:00,